createdAt,value
2023-05-19T00:00:35.155Z,86.36
2023-05-19T00:01:34.998Z,84.63
2023-05-19T00:02:35.161Z,83.50
2023-05-19T00:03:35.035Z,84.52
2023-05-19T00:04:35.268Z,83.70
2023-05-19T00:05:34.994Z,83.29
2023-05-19T00:06:35.067Z,84.01
2023-05-19T00:07:34.938Z,86.05
2023-05-19T00:08:35.045Z,82.57
2023-05-19T00:09:34.908Z,84.42
2023-05-19T00:10:35.056Z,86.98
2023-05-19T00:11:34.896Z,84.63
2023-05-19T00:12:35.083Z,85.96
2023-05-19T00:13:34.862Z,86.77
2023-05-19T00:14:35.034Z,86.36
2023-05-19T00:15:34.882Z,84.83
2023-05-19T00:16:35.090Z,82.07
2023-05-19T00:17:34.876Z,84.42
2023-05-19T00:18:35.034Z,86.16
2023-05-19T00:19:34.802Z,81.65
2023-05-19T00:20:35.968Z,81.86
2023-05-19T00:21:34.815Z,83.29
2023-05-19T00:22:34.941Z,83.70
2023-05-19T00:23:34.781Z,83.70
2023-05-19T00:24:34.958Z,84.52
2023-05-19T00:25:34.753Z,87.49
2023-05-19T00:26:34.921Z,86.57
2023-05-19T00:27:34.727Z,86.67
2023-05-19T00:28:57.935Z,86.57
2023-05-19T00:29:34.704Z,86.57
2023-05-19T00:30:34.828Z,85.55
2023-05-19T00:31:34.796Z,85.34
2023-05-19T00:32:35.883Z,85.14
2023-05-19T00:33:34.663Z,85.96
2023-05-19T00:34:35.854Z,82.68
2023-05-19T00:35:34.656Z,86.36
2023-05-19T00:36:34.799Z,83.29
2023-05-19T00:37:34.611Z,84.52
2023-05-19T00:38:34.753Z,82.89
2023-05-19T00:39:34.598Z,83.70
2023-05-19T00:40:34.838Z,82.37
2023-05-19T00:41:34.609Z,82.57
2023-05-19T00:42:34.858Z,83.60
2023-05-19T00:43:34.601Z,84.31
2023-05-19T00:44:34.694Z,84.63
2023-05-19T00:45:34.560Z,83.70
2023-05-19T00:46:34.768Z,82.48
2023-05-19T00:47:34.551Z,85.96
2023-05-19T00:48:34.755Z,84.01
2023-05-19T00:49:34.490Z,84.31
2023-05-19T00:50:34.821Z,82.17
2023-05-19T00:51:34.468Z,81.04
2023-05-19T00:52:34.539Z,82.89
2023-05-19T00:53:34.453Z,83.13
2023-05-19T00:54:34.556Z,83.44
2023-05-19T00:55:34.450Z,83.54
2023-05-19T00:56:34.477Z,81.49
2023-05-19T00:57:34.425Z,85.38
2023-05-19T00:58:34.497Z,83.54
2023-05-19T00:59:34.410Z,85.28
2023-05-19T01:00:34.709Z,84.87
2023-05-19T01:01:34.475Z,85.99
2023-05-19T01:02:34.474Z,85.69
2023-05-19T01:03:34.482Z,85.48
2023-05-19T01:04:34.440Z,85.28
2023-05-19T01:05:34.352Z,83.44
2023-05-19T01:06:34.442Z,81.29
2023-05-19T01:07:34.305Z,83.95
2023-05-19T01:08:36.482Z,83.13
2023-05-19T01:09:34.276Z,83.13
2023-05-19T01:10:34.434Z,83.84
2023-05-19T01:11:34.275Z,84.66
2023-05-19T01:12:34.385Z,88.35
2023-05-19T01:13:34.239Z,84.87
2023-05-19T01:14:34.293Z,85.17
2023-05-19T01:15:34.231Z,85.79
2023-05-19T01:16:34.346Z,86.10
2023-05-19T01:17:34.326Z,85.38
2023-05-19T01:18:34.327Z,86.91
2023-05-19T01:19:34.161Z,85.69
2023-05-19T01:20:34.346Z,86.71
2023-05-19T01:21:34.161Z,86.81
2023-05-19T01:22:34.283Z,84.05
2023-05-19T01:23:34.132Z,82.21
2023-05-19T01:24:34.259Z,81.18
2023-05-19T01:25:34.114Z,83.23
2023-05-19T01:26:34.178Z,83.33
2023-05-19T01:27:34.103Z,85.07
2023-05-19T01:28:34.244Z,85.89
2023-05-19T01:29:34.074Z,87.53
2023-05-19T01:30:34.442Z,84.87
2023-05-19T01:31:34.068Z,85.99
2023-05-19T01:32:34.118Z,82.51
2023-05-19T01:33:34.053Z,84.15
2023-05-19T01:34:34.131Z,82.62
2023-05-19T01:35:34.037Z,86.71
2023-05-19T01:36:34.141Z,82.31
2023-05-19T01:37:33.998Z,84.46
2023-05-19T01:38:34.070Z,84.77
2023-05-19T01:39:33.978Z,82.10
2023-05-19T01:40:34.320Z,80.91
2023-05-19T01:41:33.968Z,81.12
2023-05-19T01:42:34.080Z,83.47
2023-05-19T01:43:33.944Z,82.14
2023-05-19T01:44:34.002Z,82.86
2023-05-19T01:45:33.983Z,84.09
2023-05-19T01:46:34.131Z,85.38
2023-05-19T01:47:33.919Z,84.15
2023-05-19T01:48:34.106Z,84.25
2023-05-19T01:49:33.877Z,83.95
2023-05-19T01:50:34.170Z,83.74
2023-05-19T01:51:33.853Z,82.10
2023-05-19T01:52:33.963Z,81.38
2023-05-19T01:53:33.847Z,81.59
2023-05-19T01:54:33.967Z,80.67
2023-05-19T01:55:33.795Z,80.91
2023-05-19T01:56:33.907Z,82.14
2023-05-19T01:57:33.810Z,81.94
2023-05-19T01:58:33.894Z,84.91
2023-05-19T01:59:33.773Z,83.68
2023-05-19T02:00:34.164Z,82.65
2023-05-19T02:01:33.768Z,83.27
2023-05-19T02:02:33.879Z,82.96
2023-05-19T02:03:33.722Z,83.78
2023-05-19T02:04:33.885Z,83.88
2023-05-19T02:05:33.709Z,84.29
2023-05-19T02:06:34.957Z,84.39
2023-05-19T02:07:33.699Z,84.29
2023-05-19T02:08:33.800Z,85.42
2023-05-19T02:09:33.651Z,83.06
2023-05-19T02:10:33.989Z,85.83
2023-05-19T02:11:33.630Z,87.16
2023-05-19T02:12:33.784Z,83.37
2023-05-19T02:13:33.650Z,81.12
2023-05-19T02:14:33.749Z,80.81
2023-05-19T02:15:33.621Z,81.94
2023-05-19T02:16:33.758Z,82.65
2023-05-19T02:17:33.630Z,83.37
2023-05-19T02:18:33.784Z,83.27
2023-05-19T02:19:33.557Z,83.37
2023-05-19T02:20:33.881Z,83.17
2023-05-19T02:21:33.536Z,83.37
2023-05-19T02:22:33.661Z,82.55
2023-05-19T02:23:33.516Z,84.50
2023-05-19T02:24:33.730Z,85.01
2023-05-19T02:25:33.522Z,83.37
2023-05-19T02:26:33.589Z,84.39
2023-05-19T02:27:33.479Z,83.27
2023-05-19T02:28:33.739Z,83.27
2023-05-19T02:29:33.487Z,83.68
2023-05-19T02:30:33.739Z,83.17
2023-05-19T02:31:34.385Z,81.22
2023-05-19T02:32:33.617Z,81.12
2023-05-19T02:33:33.432Z,81.43
2023-05-19T02:34:33.544Z,82.96
2023-05-19T02:35:33.384Z,83.06
2023-05-19T02:36:33.546Z,82.76
2023-05-19T02:37:33.363Z,84.19
2023-05-19T02:38:33.494Z,81.63
2023-05-19T02:39:33.365Z,81.01
2023-05-19T02:40:33.731Z,82.24
2023-05-19T02:41:33.329Z,81.94
2023-05-19T02:42:33.495Z,80.71
2023-05-19T02:43:33.315Z,80.23
2023-05-19T02:44:33.420Z,81.22
2023-05-19T02:45:33.307Z,81.01
2023-05-19T02:46:33.432Z,81.43
2023-05-19T02:47:36.111Z,81.98
2023-05-19T02:48:34.446Z,82.14
2023-05-19T02:49:33.257Z,81.15
2023-05-19T02:50:33.639Z,81.67
2023-05-19T02:51:33.241Z,82.49
2023-05-19T02:52:55.380Z,80.64
2023-05-19T02:53:33.607Z,81.87
2023-05-19T02:54:34.395Z,81.67
2023-05-19T02:55:33.199Z,83.20
2023-05-19T02:56:33.325Z,80.23
2023-05-19T02:57:33.159Z,80.74
2023-05-19T02:58:33.359Z,79.82
2023-05-19T02:59:33.165Z,80.13
2023-05-19T03:00:33.535Z,80.54
2023-05-19T03:01:33.167Z,80.03
2023-05-19T03:02:33.302Z,80.74
2023-05-19T03:03:33.152Z,80.95
2023-05-19T03:04:33.128Z,83.00
2023-05-19T03:05:33.300Z,81.05
2023-05-19T03:06:33.064Z,81.05
2023-05-19T03:07:33.272Z,81.57
2023-05-19T03:08:33.047Z,81.77
2023-05-19T03:09:33.248Z,81.87
2023-05-19T03:10:33.141Z,82.90
2023-05-19T03:11:33.215Z,83.82
2023-05-19T03:12:33.003Z,82.69
2023-05-19T03:13:33.130Z,81.36
2023-05-19T03:14:33.004Z,80.85
2023-05-19T03:15:33.034Z,81.05
2023-05-19T03:16:33.016Z,83.41
2023-05-19T03:17:33.064Z,80.44
2023-05-19T03:18:32.966Z,80.33
2023-05-19T03:19:33.067Z,80.33
2023-05-19T03:20:33.074Z,80.44
2023-05-19T03:21:32.952Z,81.05
2023-05-19T03:22:32.890Z,81.87
2023-05-19T03:23:32.879Z,81.15
2023-05-19T03:24:32.904Z,82.49
2023-05-19T03:25:32.974Z,84.12
2023-05-19T03:26:32.847Z,82.39
2023-05-19T03:27:32.890Z,81.98
2023-05-19T03:28:32.843Z,82.18
2023-05-19T03:29:34.914Z,83.10
2023-05-19T03:30:33.012Z,81.57
2023-05-19T03:31:33.867Z,82.69
2023-05-19T03:32:32.939Z,81.98
2023-05-19T03:33:32.847Z,81.09
2023-05-19T03:34:32.882Z,81.50
2023-05-19T03:35:32.869Z,82.42
2023-05-19T03:36:32.744Z,81.87
2023-05-19T03:37:33.849Z,83.10
2023-05-19T03:38:32.786Z,80.64
2023-05-19T03:39:32.813Z,80.85
2023-05-19T03:40:33.066Z,81.57
2023-05-19T03:41:32.790Z,80.95
2023-05-19T03:42:32.696Z,79.52
2023-05-19T03:43:32.853Z,79.93
2023-05-19T03:44:32.696Z,81.36
2023-05-19T03:45:32.773Z,82.49
2023-05-19T03:46:32.680Z,81.67
2023-05-19T03:47:32.791Z,83.31
2023-05-19T03:48:32.771Z,83.41
2023-05-19T03:49:32.690Z,84.64
2023-05-19T03:50:32.880Z,84.33
2023-05-19T03:51:32.609Z,84.44
2023-05-19T03:52:32.698Z,82.18
2023-05-19T03:53:32.574Z,83.72
2023-05-19T03:54:32.745Z,84.12
2023-05-19T03:55:32.824Z,81.46
2023-05-19T03:56:32.778Z,84.74
2023-05-19T03:57:32.543Z,83.31
2023-05-19T03:58:32.604Z,83.31
2023-05-19T03:59:32.531Z,82.93
2023-05-19T04:00:32.936Z,83.45
2023-05-19T04:01:32.482Z,82.32
2023-05-19T04:02:32.664Z,82.93
2023-05-19T04:03:32.498Z,83.14
2023-05-19T04:04:32.677Z,81.71
2023-05-19T04:05:32.442Z,82.42
2023-05-19T04:06:32.518Z,83.65
2023-05-19T04:07:32.426Z,81.91
2023-05-19T04:08:32.530Z,82.42
2023-05-19T04:09:32.426Z,81.29
2023-05-19T04:10:32.711Z,82.83
2023-05-19T04:11:32.381Z,81.60
2023-05-19T04:12:32.471Z,82.53
2023-05-19T04:13:32.361Z,82.63
2023-05-19T04:14:32.494Z,81.87
2023-05-19T04:15:32.410Z,82.69
2023-05-19T04:16:32.489Z,84.33
2023-05-19T04:17:32.327Z,83.41
2023-05-19T04:18:32.402Z,82.08
2023-05-19T04:19:32.339Z,82.28
2023-05-19T04:20:32.491Z,81.36
2023-05-19T04:21:32.277Z,82.08
2023-05-19T04:22:32.339Z,80.95
2023-05-19T04:23:32.262Z,81.36
2023-05-19T04:24:32.315Z,82.79
2023-05-19T04:25:32.257Z,83.92
2023-05-19T04:26:32.346Z,83.10
2023-05-19T04:27:32.211Z,81.87
2023-05-19T04:28:32.252Z,82.39
2023-05-19T04:29:32.191Z,82.08
2023-05-19T04:30:32.504Z,83.20
2023-05-19T04:31:32.185Z,82.90
2023-05-19T04:32:32.303Z,83.41
2023-05-19T04:33:32.153Z,82.39
2023-05-19T04:34:32.186Z,81.77
2023-05-19T04:35:32.136Z,82.49
2023-05-19T04:36:32.213Z,81.46
2023-05-19T04:37:32.099Z,80.95
2023-05-19T04:38:32.224Z,80.64
2023-05-19T04:39:32.085Z,84.03
2023-05-19T04:40:32.485Z,82.79
2023-05-19T04:41:32.053Z,81.32
2023-05-19T04:42:32.179Z,81.12
2023-05-19T04:43:32.055Z,80.91
2023-05-19T04:44:32.096Z,81.84
2023-05-19T04:45:32.020Z,82.55
2023-05-19T04:46:32.066Z,82.76
2023-05-19T04:47:32.001Z,82.04
2023-05-19T04:48:32.069Z,81.43
2023-05-19T04:49:32.009Z,80.91
2023-05-19T04:50:32.360Z,81.84
2023-05-19T04:51:31.954Z,82.86
2023-05-19T04:52:32.076Z,82.76
2023-05-19T04:53:31.931Z,82.04
2023-05-19T04:54:32.110Z,81.73
2023-05-19T04:55:31.934Z,80.91
2023-05-19T04:56:32.219Z,81.52
2023-05-19T04:57:31.893Z,82.31
2023-05-19T04:58:32.019Z,83.23
2023-05-19T04:59:31.898Z,80.16
2023-05-19T05:00:32.305Z,80.26
2023-05-19T05:01:31.894Z,82.62
2023-05-19T05:02:32.136Z,82.10
2023-05-19T05:03:31.967Z,79.54
2023-05-19T05:04:34.021Z,80.16
2023-05-19T05:05:31.819Z,79.54
2023-05-19T05:06:32.898Z,79.03
2023-05-19T05:07:32.640Z,78.52
2023-05-19T05:08:31.972Z,78.17
2023-05-19T05:09:31.778Z,79.00
2023-05-19T05:10:32.132Z,78.59
2023-05-19T05:11:31.749Z,80.63
2023-05-19T05:12:31.907Z,80.43
2023-05-19T05:13:31.720Z,79.82
2023-05-19T05:14:31.919Z,78.89
2023-05-19T05:15:31.713Z,78.38
2023-05-19T05:16:31.857Z,81.86
2023-05-19T05:17:31.689Z,78.79
2023-05-19T05:18:31.840Z,79.20
2023-05-19T05:19:31.755Z,79.20
2023-05-19T05:20:32.012Z,82.57
2023-05-19T05:21:31.633Z,81.35
2023-05-19T05:22:31.761Z,82.27
2023-05-19T05:23:31.617Z,83.19
2023-05-19T05:24:31.801Z,83.60
2023-05-19T05:25:31.853Z,84.01
2023-05-19T05:26:31.835Z,84.83
2023-05-19T05:27:31.580Z,83.39
2023-05-19T05:28:31.738Z,82.27
2023-05-19T05:29:31.554Z,80.12
2023-05-19T05:30:31.829Z,80.74
2023-05-19T05:31:31.543Z,81.15
2023-05-19T05:32:31.813Z,79.82
2023-05-19T05:33:31.548Z,80.63
2023-05-19T05:34:31.665Z,79.50
2023-05-19T05:35:31.599Z,78.89
2023-05-19T05:36:31.589Z,79.00
2023-05-19T05:37:31.476Z,79.50
2023-05-19T05:38:31.577Z,78.59
2023-05-19T05:39:31.439Z,78.69
2023-05-19T05:40:31.527Z,79.37
2023-05-19T05:41:31.417Z,80.49
2023-05-19T05:42:31.538Z,80.39
2023-05-19T05:43:31.436Z,80.69
2023-05-19T05:44:31.515Z,81.93
2023-05-19T05:45:31.565Z,81.41
2023-05-19T05:46:31.493Z,79.98
2023-05-19T05:47:31.451Z,79.06
2023-05-19T05:48:31.439Z,79.57
2023-05-19T05:49:31.385Z,78.96
2023-05-19T05:50:31.451Z,78.45
2023-05-19T05:51:31.328Z,79.37
2023-05-19T05:52:31.351Z,79.27
2023-05-19T05:53:31.314Z,80.39
2023-05-19T05:54:31.421Z,79.16
2023-05-19T05:55:31.623Z,79.88
2023-05-19T05:56:31.393Z,80.19
2023-05-19T05:57:31.270Z,78.96
2023-05-19T05:58:31.287Z,80.19
2023-05-19T05:59:31.234Z,79.37
2023-05-19T06:00:31.669Z,78.34
2023-05-19T06:01:32.185Z,78.86
2023-05-19T06:02:31.405Z,78.45
2023-05-19T06:03:31.264Z,80.56
2023-05-19T06:04:31.253Z,78.61
2023-05-19T06:05:31.225Z,79.84
2023-05-19T06:06:31.294Z,81.79
2023-05-19T06:07:31.199Z,79.13
2023-05-19T06:08:31.279Z,79.13
2023-05-19T06:09:31.146Z,78.52
2023-05-19T06:10:31.619Z,80.35
2023-05-19T06:11:31.124Z,80.42
2023-05-19T06:12:31.263Z,79.29
2023-05-19T06:13:31.106Z,79.60
2023-05-19T06:14:31.231Z,82.36
2023-05-19T06:15:31.269Z,79.09
2023-05-19T06:16:31.148Z,79.50
2023-05-19T06:17:31.114Z,78.38
2023-05-19T06:18:31.196Z,78.58
2023-05-19T06:19:31.085Z,80.32
2023-05-19T06:20:31.466Z,80.11
2023-05-19T06:21:31.015Z,81.65
2023-05-19T06:22:31.101Z,82.05
2023-05-19T06:23:31.008Z,81.34
2023-05-19T06:24:31.107Z,82.42
2023-05-19T06:25:31.136Z,81.60
2023-05-19T06:26:31.102Z,80.28
2023-05-19T06:27:32.624Z,77.22
2023-05-19T06:28:31.151Z,77.83
2023-05-19T06:29:30.954Z,77.42
2023-05-19T06:30:31.189Z,77.83
2023-05-19T06:31:30.975Z,79.77
2023-05-19T06:32:31.105Z,81.30
2023-05-19T06:33:30.894Z,80.65
2023-05-19T06:34:31.093Z,80.14
2023-05-19T06:35:30.905Z,79.22
2023-05-19T06:36:33.023Z,78.20
2023-05-19T06:37:30.853Z,77.55
2023-05-19T06:38:30.915Z,76.12
2023-05-19T06:39:30.824Z,77.55
2023-05-19T06:40:31.202Z,79.18
2023-05-19T06:41:30.814Z,78.98
2023-05-19T06:42:51.925Z,77.75
2023-05-19T06:43:30.812Z,79.59
2023-05-19T06:44:31.851Z,79.59
2023-05-19T06:45:30.798Z,76.73
2023-05-19T06:46:30.935Z,78.02
2023-05-19T06:47:30.795Z,77.11
2023-05-19T06:48:30.848Z,79.45
2023-05-19T06:49:30.711Z,78.94
2023-05-19T06:50:31.104Z,76.39
2023-05-19T06:51:30.713Z,74.55
2023-05-19T06:52:30.849Z,76.09
2023-05-19T06:53:30.707Z,78.84
2023-05-19T06:54:30.913Z,76.19
2023-05-19T06:55:30.674Z,75.57
2023-05-19T06:56:30.820Z,77.86
2023-05-19T06:57:30.645Z,76.93
2023-05-19T06:58:30.756Z,77.55
2023-05-19T06:59:30.612Z,80.20
2023-05-19T07:00:30.804Z,80.71
2023-05-19T07:01:30.691Z,78.67
2023-05-19T07:02:30.954Z,79.08
2023-05-19T07:03:30.630Z,80.91
2023-05-19T07:04:30.834Z,78.84
2023-05-19T07:05:30.562Z,77.21
2023-05-19T07:06:30.724Z,76.59
2023-05-19T07:07:30.524Z,78.02
2023-05-19T07:08:30.707Z,81.09
2023-05-19T07:09:30.530Z,75.27
2023-05-19T07:10:30.983Z,76.70
2023-05-19T07:11:30.519Z,79.14
2023-05-19T07:12:31.634Z,80.13
2023-05-19T07:13:30.462Z,75.64
2023-05-19T07:14:30.676Z,75.54
2023-05-19T07:15:30.458Z,78.91
2023-05-19T07:16:30.629Z,73.57
2023-05-19T07:17:30.457Z,73.88
2023-05-19T07:18:30.467Z,74.62
2023-05-19T07:19:30.511Z,73.26
2023-05-19T07:20:30.858Z,75.20
2023-05-19T07:21:30.397Z,73.63
2023-05-19T07:22:30.399Z,72.82
2023-05-19T07:23:30.380Z,72.72
2023-05-19T07:24:30.418Z,70.38
2023-05-19T07:25:30.495Z,68.24
2023-05-19T07:26:30.467Z,70.82
2023-05-19T07:27:30.312Z,72.25
2023-05-19T07:28:30.475Z,71.02
2023-05-19T07:29:30.388Z,70.45
2023-05-19T07:30:30.584Z,71.16
2023-05-19T07:31:30.343Z,71.97
2023-05-19T07:32:30.433Z,72.28
2023-05-19T07:33:30.246Z,75.13
2023-05-19T07:34:30.278Z,72.08
2023-05-19T07:35:30.346Z,72.62
2023-05-19T07:36:30.355Z,71.80
2023-05-19T07:37:30.209Z,72.31
2023-05-19T07:38:30.549Z,71.39
2023-05-19T07:39:30.195Z,73.23
2023-05-19T07:40:30.522Z,73.64
2023-05-19T07:41:30.224Z,73.02
2023-05-19T07:42:30.473Z,72.21
2023-05-19T07:43:30.166Z,71.50
2023-05-19T07:44:30.351Z,71.80
2023-05-19T07:45:30.148Z,73.43
2023-05-19T07:46:30.336Z,72.01
2023-05-19T07:47:30.125Z,72.31
2023-05-19T07:48:30.258Z,74.86
2023-05-19T07:49:30.066Z,75.27
2023-05-19T07:50:30.368Z,74.65
2023-05-19T07:51:30.087Z,71.60
2023-05-19T07:52:30.200Z,72.17
2023-05-19T07:53:30.045Z,69.84
2023-05-19T07:54:30.201Z,72.69
2023-05-19T07:55:30.016Z,71.77
2023-05-19T07:56:30.360Z,69.93
2023-05-19T07:57:29.990Z,74.01
2023-05-19T07:58:30.018Z,71.47
2023-05-19T07:59:29.967Z,71.97
2023-05-19T08:00:30.040Z,72.99
2023-05-19T08:01:29.979Z,73.71
2023-05-19T08:02:30.104Z,71.97
2023-05-19T08:03:30.033Z,73.30
2023-05-19T08:04:53.120Z,73.60
2023-05-19T08:05:29.947Z,72.58
2023-05-19T08:06:52.028Z,73.50
2023-05-19T08:07:29.883Z,73.71
2023-05-19T08:08:30.914Z,71.26
2023-05-19T08:09:29.880Z,72.28
2023-05-19T08:10:29.934Z,74.41
2023-05-19T08:11:29.856Z,76.15
2023-05-19T08:12:29.915Z,76.42
2023-05-19T08:13:29.817Z,74.18
2023-05-19T08:14:29.926Z,74.69
2023-05-19T08:15:29.807Z,74.38
2023-05-19T08:16:29.919Z,73.57
2023-05-19T08:17:29.823Z,72.55
2023-05-19T08:18:29.855Z,72.65
2023-05-19T08:19:29.856Z,71.94
2023-05-19T08:20:29.866Z,69.90
2023-05-19T08:21:29.747Z,73.06
2023-05-19T08:22:29.830Z,72.62
2023-05-19T08:23:29.740Z,71.50
2023-05-19T08:24:29.798Z,73.02
2023-05-19T08:25:29.697Z,73.33
2023-05-19T08:26:29.806Z,74.45
2023-05-19T08:27:29.680Z,73.94
2023-05-19T08:28:29.768Z,71.60
2023-05-19T08:29:29.656Z,70.72
2023-05-19T08:30:29.731Z,72.45
2023-05-19T08:31:29.676Z,71.73
2023-05-19T08:32:29.787Z,72.08
2023-05-19T08:33:29.645Z,74.93
2023-05-19T08:34:29.699Z,73.64
2023-05-19T08:35:29.598Z,73.43
2023-05-19T08:36:29.685Z,75.47
2023-05-19T08:37:30.702Z,75.88
2023-05-19T08:38:29.724Z,72.72
2023-05-19T08:39:29.553Z,72.41
2023-05-19T08:40:29.629Z,73.02
2023-05-19T08:41:29.566Z,73.02
2023-05-19T08:42:29.684Z,74.86
2023-05-19T08:43:29.548Z,76.39
2023-05-19T08:44:29.641Z,74.65
2023-05-19T08:45:29.508Z,73.94
2023-05-19T08:46:29.626Z,73.84
2023-05-19T08:47:29.591Z,74.25
2023-05-19T08:48:29.560Z,74.45
2023-05-19T08:49:29.469Z,74.96
2023-05-19T08:50:29.594Z,72.62
2023-05-19T08:51:29.423Z,72.21
2023-05-19T08:52:32.601Z,73.94
2023-05-19T08:53:34.077Z,72.01
2023-05-19T08:54:29.417Z,72.52
2023-05-19T08:55:31.725Z,73.54
2023-05-19T08:56:29.387Z,73.74
2023-05-19T08:57:29.476Z,73.13
2023-05-19T08:58:29.358Z,74.96
2023-05-19T08:59:29.470Z,73.33
2023-05-19T09:00:29.335Z,74.25
2023-05-19T09:01:29.606Z,73.74
2023-05-19T09:02:29.385Z,73.33
2023-05-19T09:03:31.451Z,77.17
2023-05-19T09:04:30.334Z,74.41
2023-05-19T09:05:29.394Z,77.06
2023-05-19T09:06:29.270Z,75.13
2023-05-19T09:07:29.381Z,75.02
2023-05-19T09:08:29.246Z,72.69
2023-05-19T09:09:29.398Z,72.28
2023-05-19T09:10:29.370Z,71.47
2023-05-19T09:11:29.308Z,70.38
2023-05-19T09:12:29.193Z,72.11
2023-05-19T09:13:29.334Z,72.62
2023-05-19T09:14:29.213Z,72.62
2023-05-19T09:15:29.330Z,71.70
2023-05-19T09:16:30.229Z,73.33
2023-05-19T09:17:29.285Z,74.15
2023-05-19T09:18:29.156Z,72.78
2023-05-19T09:19:29.366Z,73.50
2023-05-19T09:20:29.122Z,72.28
2023-05-19T09:21:29.279Z,72.28
2023-05-19T09:22:29.107Z,72.62
2023-05-19T09:23:29.199Z,74.25
2023-05-19T09:24:29.114Z,72.11
2023-05-19T09:25:29.204Z,71.60
2023-05-19T09:26:29.044Z,71.70
2023-05-19T09:27:29.216Z,73.74
2023-05-19T09:28:29.035Z,74.25
2023-05-19T09:29:29.174Z,73.50
2023-05-19T09:30:29.008Z,76.65
2023-05-19T09:31:29.188Z,74.62
2023-05-19T09:32:29.063Z,72.38
2023-05-19T09:33:29.165Z,71.56
2023-05-19T09:34:29.020Z,71.06
2023-05-19T09:35:29.071Z,73.30
2023-05-19T09:36:28.952Z,73.06
2023-05-19T09:37:29.084Z,73.26
2023-05-19T09:38:28.916Z,72.04
2023-05-19T09:39:30.076Z,73.87
2023-05-19T09:40:28.904Z,70.21
2023-05-19T09:41:29.027Z,70.04
2023-05-19T09:42:28.885Z,71.67
2023-05-19T09:43:52.087Z,74.01
2023-05-19T09:44:28.928Z,73.10
2023-05-19T09:45:50.997Z,72.08
2023-05-19T09:46:28.933Z,72.69
2023-05-19T09:47:28.963Z,72.08
2023-05-19T09:48:28.812Z,71.36
2023-05-19T09:49:30.951Z,71.06
2023-05-19T09:50:28.803Z,72.17
2023-05-19T09:51:29.901Z,72.08
2023-05-19T09:52:28.797Z,72.08
2023-05-19T09:53:28.887Z,73.10
2023-05-19T09:54:28.746Z,71.16
2023-05-19T09:55:28.950Z,70.95
2023-05-19T09:56:28.736Z,72.17
2023-05-19T09:57:28.963Z,71.56
2023-05-19T09:58:28.711Z,73.80
2023-05-19T09:59:32.058Z,75.13
2023-05-19T10:00:28.687Z,76.11
2023-05-19T10:01:28.881Z,73.16
2023-05-19T10:02:28.694Z,73.26
2023-05-19T10:03:28.861Z,72.75
2023-05-19T10:04:28.690Z,73.06
2023-05-19T10:05:28.799Z,73.77
2023-05-19T10:06:28.621Z,72.55
2023-05-19T10:07:28.794Z,73.33
2023-05-19T10:08:28.622Z,72.25
2023-05-19T10:09:28.835Z,72.55
2023-05-19T10:10:28.665Z,72.55
2023-05-19T10:11:28.732Z,71.02
2023-05-19T10:12:28.553Z,71.33
2023-05-19T10:13:28.718Z,71.53
2023-05-19T10:14:28.540Z,72.69
2023-05-19T10:15:28.676Z,72.08
2023-05-19T10:16:28.543Z,73.10
2023-05-19T10:17:28.671Z,72.38
2023-05-19T10:18:28.486Z,72.38
2023-05-19T10:19:28.914Z,72.99
2023-05-19T10:20:28.511Z,72.58
2023-05-19T10:21:49.610Z,73.40
2023-05-19T10:22:28.466Z,72.89
2023-05-19T10:23:30.670Z,74.41
2023-05-19T10:24:28.427Z,73.19
2023-05-19T10:25:28.689Z,71.56
2023-05-19T10:26:28.402Z,72.86
2023-05-19T10:27:28.435Z,72.75
2023-05-19T10:28:28.420Z,71.23
2023-05-19T10:29:28.430Z,72.34
2023-05-19T10:30:28.392Z,71.70
2023-05-19T10:31:28.463Z,75.57
2023-05-19T10:32:28.482Z,72.11
2023-05-19T10:33:28.360Z,71.40
2023-05-19T10:34:28.321Z,69.67
2023-05-19T10:35:28.427Z,71.47
2023-05-19T10:36:28.305Z,71.87
2023-05-19T10:37:28.413Z,73.09
2023-05-19T10:38:28.271Z,72.48
2023-05-19T10:39:28.294Z,73.70
2023-05-19T10:40:28.278Z,70.25
2023-05-19T10:41:28.302Z,72.58
2023-05-19T10:42:28.232Z,69.64
2023-05-19T10:43:28.328Z,69.64
2023-05-19T10:44:28.236Z,71.47
2023-05-19T10:45:28.287Z,71.26
2023-05-19T10:46:28.243Z,71.26
2023-05-19T10:47:28.385Z,71.26
2023-05-19T10:48:28.180Z,70.58
2023-05-19T10:49:28.310Z,71.19
2023-05-19T10:50:28.176Z,70.58
2023-05-19T10:51:28.294Z,72.82
2023-05-19T10:52:28.166Z,71.19
2023-05-19T10:53:28.143Z,72.21
2023-05-19T10:54:28.223Z,70.18
2023-05-19T10:55:28.116Z,72.01
2023-05-19T10:56:28.230Z,72.21
2023-05-19T10:57:28.119Z,72.21
2023-05-19T10:58:28.184Z,72.31
2023-05-19T10:59:29.652Z,71.30
2023-05-19T11:00:28.204Z,71.19
2023-05-19T11:01:28.070Z,72.11
2023-05-19T11:02:28.193Z,71.70
2023-05-19T11:03:28.070Z,72.21
2023-05-19T11:04:28.068Z,71.40
2023-05-19T11:05:28.031Z,70.75
2023-05-19T11:06:28.074Z,72.69
2023-05-19T11:07:27.980Z,70.86
2023-05-19T11:08:28.069Z,73.26
2023-05-19T11:09:38.003Z,74.48
2023-05-19T11:10:27.956Z,68.49
2023-05-19T11:11:29.021Z,70.72
2023-05-19T11:12:27.924Z,70.72
2023-05-19T11:13:28.506Z,71.53
2023-05-19T11:14:27.934Z,68.38
2023-05-19T11:15:28.034Z,68.99
2023-05-19T11:16:27.888Z,69.91
2023-05-19T11:17:28.002Z,71.33
2023-05-19T11:18:27.897Z,74.28
2023-05-19T11:19:28.130Z,69.60
2023-05-19T11:20:27.872Z,70.11
2023-05-19T11:21:28.954Z,69.70
2023-05-19T11:22:27.828Z,69.78
2023-05-19T11:23:27.891Z,69.78
2023-05-19T11:24:27.811Z,69.26
2023-05-19T11:25:27.905Z,68.96
2023-05-19T11:26:27.781Z,69.87
2023-05-19T11:27:27.930Z,69.87
2023-05-19T11:28:27.768Z,70.62
2023-05-19T11:29:27.868Z,68.28
2023-05-19T11:30:27.761Z,68.99
2023-05-19T11:31:27.909Z,69.40
2023-05-19T11:32:27.793Z,70.14
2023-05-19T11:33:28.017Z,69.33
2023-05-19T11:34:27.703Z,72.99
2023-05-19T11:35:27.795Z,73.54
2023-05-19T11:36:27.675Z,70.89
2023-05-19T11:37:27.732Z,72.92
2023-05-19T11:38:27.660Z,71.30
2023-05-19T11:39:27.768Z,72.01
2023-05-19T11:40:27.681Z,71.70
2023-05-19T11:41:27.723Z,72.31
2023-05-19T11:42:27.615Z,74.04
2023-05-19T11:43:27.774Z,72.41
2023-05-19T11:44:27.646Z,73.54
2023-05-19T11:45:27.709Z,71.60
2023-05-19T11:46:27.600Z,71.91
2023-05-19T11:47:27.879Z,73.74
2023-05-19T11:48:27.577Z,72.41
2023-05-19T11:49:27.701Z,70.89
2023-05-19T11:50:27.550Z,71.33
2023-05-19T11:51:27.689Z,72.55
2023-05-19T11:52:27.527Z,74.38
2023-05-19T11:53:27.776Z,73.67
2023-05-19T11:54:27.554Z,73.77
2023-05-19T11:55:27.805Z,74.08
2023-05-19T11:56:27.713Z,71.91
2023-05-19T11:57:27.647Z,72.82
2023-05-19T11:58:27.467Z,70.58
2023-05-19T11:59:29.598Z,69.87
2023-05-19T12:00:27.460Z,73.54
2023-05-19T12:01:29.505Z,70.79
2023-05-19T12:02:27.500Z,70.68
2023-05-19T12:03:28.709Z,72.01
2023-05-19T12:04:27.407Z,71.97
2023-05-19T12:05:27.552Z,71.16
2023-05-19T12:06:27.394Z,70.65
2023-05-19T12:07:27.416Z,70.86
2023-05-19T12:08:27.336Z,68.92
2023-05-19T12:09:28.445Z,69.02
2023-05-19T12:10:27.339Z,70.04
2023-05-19T12:11:27.341Z,69.43
2023-05-19T12:12:27.299Z,70.65
2023-05-19T12:13:27.439Z,70.75
2023-05-19T12:14:27.276Z,69.97
2023-05-19T12:15:27.392Z,70.28
2023-05-19T12:16:27.297Z,69.77
2023-05-19T12:17:27.405Z,69.77
2023-05-19T12:18:27.229Z,71.09
2023-05-19T12:19:27.306Z,70.89
2023-05-19T12:20:27.234Z,69.26
2023-05-19T12:21:33.708Z,70.01
2023-05-19T12:22:27.195Z,70.72
2023-05-19T12:23:27.325Z,71.64
2023-05-19T12:24:27.170Z,72.86
2023-05-19T12:25:27.365Z,69.80
2023-05-19T12:26:27.163Z,70.82
2023-05-19T12:27:27.473Z,68.38
2023-05-19T12:28:27.129Z,68.18
2023-05-19T12:29:27.250Z,68.88
2023-05-19T12:30:27.128Z,70.01
2023-05-19T12:31:27.326Z,70.72
2023-05-19T12:32:27.140Z,69.40
2023-05-19T12:33:27.283Z,70.31
2023-05-19T12:34:27.062Z,71.53
2023-05-19T12:35:27.278Z,71.64
2023-05-19T12:36:27.052Z,73.26
2023-05-19T12:37:27.208Z,73.06
2023-05-19T12:38:27.032Z,70.41
2023-05-19T12:39:27.281Z,69.70
2023-05-19T12:40:27.003Z,71.40
2023-05-19T12:41:27.183Z,71.60
2023-05-19T12:42:26.977Z,69.77
2023-05-19T12:44:43.261Z,68.65
2023-05-19T12:45:44.254Z,69.97
2023-05-19T12:46:44.289Z,68.75
2023-05-19T12:47:44.177Z,70.38
2023-05-19T12:48:44.246Z,72.41
2023-05-19T12:49:44.138Z,69.57
2023-05-19T12:50:44.335Z,69.57
2023-05-19T12:51:44.108Z,70.68
2023-05-19T12:52:44.148Z,71.70
2023-05-19T12:53:44.128Z,69.36